Simmons Army Air Field
KFBG : now visible

Airfield :











YOU CAN JOIN US ON...

 
LOGIN :

Register | Disclaimer

   EN    FR    IT 

 









Legend :    VFR   Marginal VFR   IFR   Intensive IFR   Very Intensive IFR
Visi :
Ceiling :
>= 8 km
>= 3000ft
5 to 8 km
1000 to 3000 ft
1500m to 5 km
500 to 1000 ft
800 to 1500m
200 to 500 ft
< 800m
< 200 ft
Symbols :   Thunderstorms  Fog  Heavy snow  Heavy precipitations  Wind > 20 kt






- Airport Elevation : 244 ft


KFBG - Simmons Army Air Field

CURRENT METAR :
  • 272333Z AUTO 33003KT 10SM CLR 14/12 A3003 RMK AO2 SLP171 50013

EXPIRED METARs :
  • 272256Z AUTO 00000KT 10SM CLR 15/13 A3001 RMK AO2 SLP164 T01480125
  • 272156Z AUTO 32005KT 10SM CLR 18/10 A2999 RMK AO2 SLP158 T01820100
  • 272141Z AUTO 31006KT 10SM CLR 19/10 A2999 RMK AO2 SLP157
  • 272110Z AUTO 31004KT 10SM CLR 21/10 A3001 RMK AO2 PRESRR SLP164
  • 272056Z AUTO 32006KT 10SM CLR 21/09 A2999 RMK AO2 SLP157 T02130092 55009

TAF TAF KFBG
Valid from the 27 at 18:00 until the 29 at 00:00 UTC


271800Z 2718/2824 VRB06KT 9999 SCT023 QNH3000INS
BECMG 2808/2809 VRB06KT 6000 BR BKN080 QNH3002INS
BECMG 2812/2813 34009KT 9999 NSW BKN090 QNH3000INS
BECMG 2816/2817 35006KT 9999 SKC QNH3008INS TX23/2720Z TN10/2809Z
KZDC FIR / North America



MET'MAP, your aeronautical weather chart ! - Copyright ORBIFLY December 2007 - Disclaimer

ORBIFLY MET'MAP TEAM :

Programming & Development : Alexandra Zaïnal
Concept & original design : Baudouin d'Aumeries
Assistance for programming : Marc-Olivier Méhu
Technical & hardware support : Manuel Goepfert

Contact : metmap@orbifly.com




SOURCES & CREDITS :

   NOAA       Earth
Advisory